Time;durP1;ratioP1;P1;durP2;ratioP2;P2;SDS_P1;SDS_P2;PMS_P1;PMS_P2;Temp;Humidity;BMP_temperature;BMP_pressure;BME280_temperature;BME280_humidity;BME280_pressure;Samples;Min_cycle;Max_cycle;Signal;HPM_P1;HPM_P2
2022/04/15 00:01:20;;;;;;;23.92;11.10;;;;;;;;;;5112763;28;20024;-76
2022/04/15 00:03:46;;;;;;;28.40;14.93;;;;;;;;;;5112247;28;20020;-75
2022/04/15 00:06:13;;;;;;;17.60;12.90;;;;;;;;;;5112389;28;20023;-76
2022/04/15 00:08:40;;;;;;;14.90;8.45;;;;;;;;;;5094027;28;20100;-76
2022/04/15 00:11:07;;;;;;;19.88;11.02;;;;;;;;;;5112272;28;20015;-75
2022/04/15 00:13:33;;;;;;;23.63;12.18;;;;;;;;;;5111642;28;20042;-76
2022/04/15 00:15:59;;;;;;;25.30;12.10;;;;;;;;;;5112215;28;20016;-76
2022/04/15 00:18:26;;;;;;;25.77;13.23;;;;;;;;;;5112161;28;20061;-75
2022/04/15 00:20:53;;;;;;;41.20;20.13;;;;;;;;;;5112141;28;20059;-75
2022/04/15 00:23:22;;;;;;;35.38;16.83;;;;;;;;;;5111926;28;20064;-75
2022/04/15 00:25:49;;;;;;;37.20;18.73;;;;;;;;;;5111891;28;20020;-75
2022/04/15 00:28:15;;;;;;;22.98;13.65;;;;;;;;;;5112171;28;20019;-75
2022/04/15 00:30:41;;;;;;;35.25;21.20;;;;;;;;;;5111839;28;20419;-75
2022/04/15 00:33:07;;;;;;;30.13;17.77;;;;;;;;;;5111775;28;20027;-75
2022/04/15 00:35:33;;;;;;;26.15;13.18;;;;;;;;;;5093793;28;20485;-75
2022/04/15 00:37:59;;;;;;;24.55;13.93;;;;;;;;;;5112089;28;20039;-75
2022/04/15 00:40:26;;;;;;;15.90;9.82;;;;;;;;;;5093825;28;20382;-76
2022/04/15 00:42:52;;;;;;;17.90;10.40;;;;;;;;;;5093740;28;20048;-75
2022/04/15 00:45:18;;;;;;;19.10;11.25;;;;;;;;;;5111929;28;20023;-76
2022/04/15 00:47:51;;;;;;;21.45;10.65;;;;;;;;;;5112053;28;20031;-75
2022/04/15 00:50:18;;;;;;;18.95;10.30;;;;;;;;;;5111594;28;20420;-75
2022/04/15 00:52:46;;;;;;;16.23;9.45;;;;;;;;;;5093623;28;20165;-75
2022/04/15 00:55:13;;;;;;;20.08;10.90;;;;;;;;;;5111348;28;20382;-76
2022/04/15 00:57:43;;;;;;;16.65;10.50;;;;;;;;;;5093436;28;20031;-76
2022/04/15 01:00:10;;;;;;;19.05;9.25;;;;;;;;;;5111591;28;20031;-75
2022/04/15 01:02:37;;;;;;;16.48;9.15;;;;;;;;;;5112037;28;20379;-75
2022/04/15 01:05:04;;;;;;;16.48;10.35;;;;;;;;;;5093227;28;20140;-75
2022/04/15 01:07:33;;;;;;;15.50;9.68;;;;;;;;;;5111753;28;20027;-75
2022/04/15 01:10:00;;;;;;;17.77;8.43;;;;;;;;;;5111758;28;20021;-76
2022/04/15 01:12:28;;;;;;;13.18;7.63;;;;;;;;;;5111686;28;20078;-76
2022/04/15 01:14:59;;;;;;;15.90;8.40;;;;;;;;;;5111552;28;20024;-76
2022/04/15 01:17:25;;;;;;;16.85;8.38;;;;;;;;;;5093285;28;20042;-75
2022/04/15 01:19:51;;;;;;;14.00;8.13;;;;;;;;;;5111430;28;20019;-75
2022/04/15 01:22:18;;;;;;;12.77;8.20;;;;;;;;;;5093197;28;20027;-76
2022/04/15 01:24:44;;;;;;;16.20;9.27;;;;;;;;;;5114203;28;20098;-75
2022/04/15 01:27:10;;;;;;;17.20;10.07;;;;;;;;;;5096864;28;20024;-75
2022/04/15 01:29:40;;;;;;;15.52;9.05;;;;;;;;;;5115549;28;20095;-75
2022/04/15 01:32:07;;;;;;;15.65;10.05;;;;;;;;;;5096939;28;20020;-76
2022/04/15 01:34:34;;;;;;;18.58;9.18;;;;;;;;;;5113699;28;20042;-76
2022/04/15 01:37:01;;;;;;;16.92;9.10;;;;;;;;;;5095714;28;20037;-75
2022/04/15 01:39:28;;;;;;;15.25;9.23;;;;;;;;;;5114441;28;20016;-76
2022/04/15 01:41:54;;;;;;;18.80;10.93;;;;;;;;;;5114451;28;20023;-75
2022/04/15 01:44:20;;;;;;;15.23;9.15;;;;;;;;;;5114274;28;20027;-76
2022/04/15 01:46:46;;;;;;;17.23;9.02;;;;;;;;;;5096186;28;20026;-75
2022/04/15 01:49:12;;;;;;;19.27;9.13;;;;;;;;;;5114367;28;20518;-75
2022/04/15 01:51:38;;;;;;;11.98;8.77;;;;;;;;;;5115142;28;20038;-75
2022/04/15 01:54:04;;;;;;;17.33;9.48;;;;;;;;;;5096540;28;20036;-75
2022/04/15 01:56:30;;;;;;;19.45;8.25;;;;;;;;;;5115158;28;20096;-75
2022/04/15 01:58:56;;;;;;;23.58;9.98;;;;;;;;;;5114752;28;20026;-75
2022/04/15 02:01:22;;;;;;;13.63;9.57;;;;;;;;;;5114643;28;20024;-76
2022/04/15 02:03:48;;;;;;;27.55;11.80;;;;;;;;;;5114668;28;20102;-75
2022/04/15 02:06:15;;;;;;;19.52;10.20;;;;;;;;;;5096291;28;20020;-75
2022/04/15 02:08:41;;;;;;;14.93;8.98;;;;;;;;;;5114809;28;20024;-76
2022/04/15 02:11:07;;;;;;;17.23;8.88;;;;;;;;;;5096180;28;20024;-75
2022/04/15 02:13:33;;;;;;;17.90;9.40;;;;;;;;;;5114467;28;20027;-75
2022/04/15 02:15:59;;;;;;;20.38;9.48;;;;;;;;;;5114393;28;20106;-76
2022/04/15 02:18:26;;;;;;;16.45;9.05;;;;;;;;;;5096154;28;20038;-75
2022/04/15 02:20:53;;;;;;;14.57;8.88;;;;;;;;;;5096092;28;20049;-75
2022/04/15 02:23:19;;;;;;;16.85;12.52;;;;;;;;;;5096002;28;20019;-76
2022/04/15 02:25:45;;;;;;;11.95;7.32;;;;;;;;;;5114263;28;20038;-75
2022/04/15 02:28:11;;;;;;;19.30;10.20;;;;;;;;;;5114113;28;20016;-75
2022/04/15 02:30:37;;;;;;;20.02;11.40;;;;;;;;;;5096026;28;20440;-76
2022/04/15 02:33:03;;;;;;;13.07;9.50;;;;;;;;;;5095753;28;20031;-76
2022/04/15 02:35:29;;;;;;;14.55;10.15;;;;;;;;;;5113319;28;20071;-75
2022/04/15 02:37:55;;;;;;;15.60;8.90;;;;;;;;;;5095662;28;20024;-75
2022/04/15 02:40:21;;;;;;;18.67;8.65;;;;;;;;;;5095684;28;20024;-75
2022/04/15 02:42:47;;;;;;;23.70;11.18;;;;;;;;;;5113590;28;20020;-75
2022/04/15 02:45:13;;;;;;;23.13;12.75;;;;;;;;;;5113798;28;20026;-76
2022/04/15 02:47:41;;;;;;;24.67;12.15;;;;;;;;;;5113755;28;20080;-75
2022/04/15 02:50:07;;;;;;;27.98;13.35;;;;;;;;;;5113982;28;20136;-75
2022/04/15 02:52:33;;;;;;;19.52;12.85;;;;;;;;;;5095388;28;20839;-76
2022/04/15 02:54:59;;;;;;;21.05;12.27;;;;;;;;;;5113586;28;20106;-76
2022/04/15 02:57:26;;;;;;;22.60;9.05;;;;;;;;;;5113741;28;20016;-77
2022/04/15 02:59:52;;;;;;;13.57;8.60;;;;;;;;;;5113520;28;20019;-76
2022/04/15 03:02:18;;;;;;;14.95;6.82;;;;;;;;;;5113445;28;20050;-75
2022/04/15 03:04:44;;;;;;;16.20;5.43;;;;;;;;;;5113268;28;20106;-76
2022/04/15 03:07:10;;;;;;;8.32;4.97;;;;;;;;;;5113306;28;20019;-77
2022/04/15 03:09:36;;;;;;;14.63;6.50;;;;;;;;;;5113360;28;20019;-77
2022/04/15 03:12:02;;;;;;;11.38;5.60;;;;;;;;;;5094984;28;20024;-76
2022/04/15 03:14:28;;;;;;;10.95;5.68;;;;;;;;;;5113104;28;20054;-75
2022/04/15 03:16:54;;;;;;;10.65;6.07;;;;;;;;;;5094791;28;20029;-75
2022/04/15 03:19:20;;;;;;;13.07;6.68;;;;;;;;;;5113149;28;20072;-76
2022/04/15 03:21:46;;;;;;;9.27;6.03;;;;;;;;;;5094885;28;20097;-76
2022/04/15 03:24:12;;;;;;;13.35;6.25;;;;;;;;;;5094835;28;20027;-76
2022/04/15 03:26:38;;;;;;;17.55;8.20;;;;;;;;;;5113304;28;20043;-76
2022/04/15 03:29:04;;;;;;;14.90;7.75;;;;;;;;;;5112573;28;20046;-76
2022/04/15 03:31:30;;;;;;;15.43;7.45;;;;;;;;;;5094602;28;20027;-76
2022/04/15 03:33:56;;;;;;;14.52;7.15;;;153.60;2252.80;;;;;;5112849;28;20037;-76
2022/04/15 03:36:22;;;;;;;13.77;6.78;;;128.70;2252.80;;;;;;5094577;28;20111;-76
2022/04/15 03:38:48;;;;;;;25.17;7.90;;;128.60;2252.80;;;;;;5112819;28;20099;-77
2022/04/15 03:41:13;;;;;;;22.73;9.65;;;128.70;2252.80;;;;;;5112818;28;20110;-77
2022/04/15 03:43:40;;;;;;;25.30;11.10;;;128.80;2252.80;;;;;;5112448;28;20066;-75
2022/04/15 03:46:07;;;;;;;16.58;11.05;;;;;;;;;;5112465;28;20016;-74
2022/04/15 03:48:33;;;;;;;30.95;10.05;;;;;;;;;;5111530;28;20020;-77
2022/04/15 03:50:59;;;;;;;17.73;10.20;;;;;;;;;;5112549;28;20028;-76
2022/04/15 03:53:25;;;;;;;26.23;11.40;;;153.80;2252.80;;;;;;5094240;28;20411;-76
2022/04/15 03:55:51;;;;;;;25.50;12.30;;;153.60;2252.80;;;;;;5094307;28;20051;-75
2022/04/15 03:58:17;;;;;;;30.13;13.70;;;128.90;2252.80;;;;;;5112590;28;20019;-75
2022/04/15 04:00:44;;;;;;;28.45;14.50;;;153.60;2252.80;;;;;;5112139;28;20030;-76
2022/04/15 04:03:09;;;;;;;32.63;15.60;;;153.60;2252.80;;;;;;5093735;28;20080;-76
2022/04/15 04:05:35;;;;;;;23.10;12.80;;;;;;;;;;5093912;28;20052;-76
2022/04/15 04:08:01;;;;;;;20.25;10.95;;;;;;;;;;5112365;28;20012;-78
2022/04/15 04:10:27;;;;;;;24.45;13.23;;;;;;;;;;5111420;28;20024;-78
2022/04/15 04:12:54;;;;;;;17.60;10.02;;;;;;;;;;5111513;28;20027;-78
2022/04/15 04:15:20;;;;;;;20.45;11.23;;;;;;;;;;5093055;28;20521;-78
2022/04/15 04:17:48;;;;;;;21.48;12.48;;;;;;;;;;5093737;28;20474;-80
2022/04/15 04:20:16;;;;;;;38.53;15.70;;;;;;;;;;5093843;28;20104;-76
2022/04/15 04:22:42;;;;;;;39.20;18.10;;;;;;;;;;5093724;28;20016;-76
2022/04/15 04:25:08;;;;;;;44.05;22.17;;;;;;;;;;5112309;28;20477;-77
2022/04/15 04:27:39;;;;;;;52.03;29.15;;;;;;;;;;5112029;28;20111;-76
2022/04/15 04:30:06;;;;;;;61.60;31.52;;;;;;;;;;5093709;28;20026;-76
2022/04/15 04:32:32;;;;;;;53.83;30.63;;;;;;;;;;5111957;28;20098;-75
2022/04/15 04:34:58;;;;;;;50.58;25.23;;;;;;;;;;5111877;28;20037;-76
2022/04/15 04:37:24;;;;;;;33.10;18.77;;;;;;;;;;5093811;28;20059;-75
2022/04/15 04:39:50;;;;;;;36.13;18.25;;;;;;;;;;5093665;28;20458;-76
2022/04/15 04:42:16;;;;;;;52.60;18.75;;;;;;;;;;5093657;28;20596;-76
2022/04/15 04:44:42;;;;;;;40.42;20.05;;;;;;;;;;5111547;28;20024;-77
2022/04/15 04:47:10;;;;;;;45.72;21.05;;;;;;;;;;5092510;28;20032;-77
2022/04/15 04:49:36;;;;;;;36.53;20.13;;;;;;;;;;5093205;28;20051;-79
2022/04/15 04:52:03;;;;;;;64.35;22.35;;;;;;;;;;5110855;28;20048;-76
2022/04/15 04:54:30;;;;;;;48.70;22.25;;;;;;;;;;5092278;28;20085;-76
2022/04/15 04:56:56;;;;;;;52.70;24.17;;;;;;;;;;5110383;28;20012;-78
2022/04/15 04:59:25;;;;;;;61.40;24.33;;;;;;;;;;5094416;28;20027;-77
2022/04/15 05:01:51;;;;;;;55.28;23.63;;;;;;;;;;5097111;28;20015;-77
2022/04/15 05:04:17;;;;;;;58.42;25.38;;;;;;;;;;5097242;28;20043;-77
2022/04/15 05:06:43;;;;;;;52.80;24.13;;;;;;;;;;5115608;28;20031;-77
2022/04/15 05:09:09;;;;;;;55.22;23.83;;;;;;;;;;5115979;28;20019;-80
2022/04/15 05:11:35;;;;;;;62.83;24.25;;;;;;;;;;5097403;28;20019;-76
2022/04/15 05:14:01;;;;;;;53.17;25.00;;;;;;;;;;5115441;28;20036;-76
2022/04/15 05:16:27;;;;;;;50.40;20.58;;;;;;;;;;5115722;28;20142;-76
2022/04/15 05:18:54;;;;;;;44.15;17.98;;;;;;;;;;5115303;28;20072;-75
2022/04/15 05:21:20;;;;;;;33.28;17.88;;;;;;;;;;5096696;28;20035;-77
2022/04/15 05:23:46;;;;;;;40.22;17.58;;;;;;;;;;5113849;28;20095;-75
2022/04/15 05:26:12;;;;;;;47.30;18.08;;;;;;;;;;5114419;28;20028;-77
2022/04/15 05:28:38;;;;;;;40.47;19.13;;;;;;;;;;5114113;28;20103;-76
2022/04/15 05:31:05;;;;;;;45.65;18.05;;;;;;;;;;5095246;28;20514;-76
2022/04/15 05:33:31;;;;;;;43.72;18.88;;;;;;;;;;5114770;28;20034;-77
2022/04/15 05:36:00;;;;;;;47.80;17.60;;;;;;;;;;5114263;28;20028;-76
2022/04/15 05:38:26;;;;;;;40.38;18.17;;;;;;;;;;5112085;28;20190;-76
2022/04/15 05:40:52;;;;;;;39.67;15.80;;;;;;;;;;5114951;28;20097;-77
2022/04/15 05:43:19;;;;;;;42.70;17.40;;;;;;;;;;5096583;28;20020;-77
2022/04/15 05:45:45;;;;;;;30.05;17.60;;;;;;;;;;5114828;28;20039;-76
2022/04/15 05:48:11;;;;;;;32.05;16.70;;;;;;;;;;5097116;28;20019;-78
2022/04/15 05:50:37;;;;;;;35.05;19.15;;;;;;;;;;5097031;28;20019;-78
2022/04/15 05:53:03;;;;;;;33.75;18.25;;;;;;;;;;5113796;28;20020;-77
2022/04/15 05:55:29;;;;;;;38.22;17.17;;;;;;;;;;5113030;28;20395;-76
2022/04/15 05:57:55;;;;;;;37.38;17.42;;;;;;;;;;5095786;28;20359;-76
2022/04/15 06:00:21;;;;;;;40.20;18.95;;;;;;;;;;5113439;28;20474;-77
2022/04/15 06:02:47;;;;;;;28.90;17.48;;;;;;;;;;5113351;28;20466;-75
2022/04/15 06:05:13;;;;;;;37.28;17.95;;;;;;;;;;5094486;28;20039;-77
2022/04/15 06:07:39;;;;;;;32.35;18.23;;;;;;;;;;5094408;28;20027;-75
2022/04/15 06:10:05;;;;;;;30.67;16.52;;;;;;;;;;5112852;28;20016;-77
2022/04/15 06:15:28;;;;;;;32.53;17.80;;;;;;;;;;5110821;28;20043;-75
2022/04/15 06:17:54;;;;;;;34.78;19.92;;;;;;;;;;5095736;28;20051;-76
2022/04/15 06:20:20;;;;;;;38.70;20.17;;;;;;;;;;5095730;28;20025;-76
2022/04/15 06:22:47;;;;;;;26.40;18.23;;;;;;;;;;5095599;28;20023;-77
2022/04/15 06:25:13;;;;;;;33.88;18.42;;;;;;;;;;5094571;28;20019;-76
2022/04/15 06:27:39;;;;;;;38.10;18.50;;;;;;;;;;5096196;28;20442;-77
2022/04/15 06:30:07;;;;;;;40.97;18.38;;;;;;;;;;5114627;28;20099;-77
2022/04/15 06:32:33;;;;;;;40.25;22.45;;;;;;;;;;5114930;28;20486;-77
2022/04/15 06:35:00;;;;;;;62.17;31.77;;;;;;;;;;5115018;28;20028;-77
2022/04/15 06:37:26;;;;;;;43.92;25.17;;;;;;;;;;5113713;28;20038;-77
2022/04/15 06:39:52;;;;;;;44.40;21.35;;;;;;;;;;5114741;28;20027;-78
2022/04/15 06:42:25;;;;;;;44.90;18.00;;;;;;;;;;5096148;28;20072;-76
2022/04/15 06:44:51;;;;;;;27.17;14.40;;;;;;;;;;5113820;28;20016;-76
2022/04/15 06:47:17;;;;;;;36.17;15.90;;;;;;;;;;5095742;28;20031;-77
2022/04/15 06:49:45;;;;;;;28.38;14.25;;;;;;;;;;5113777;28;20055;-76
2022/04/15 06:52:11;;;;;;;34.95;15.20;;;;;;;;;;5113772;28;20462;-76
2022/04/15 06:54:37;;;;;;;37.33;14.90;;;;;;;;;;5113693;28;20035;-77
2022/04/15 06:57:03;;;;;;;47.55;17.15;;;;;;;;;;5095557;28;20136;-77
2022/04/15 06:59:29;;;;;;;42.22;15.73;;;;;;;;;;5114153;28;20103;-78
2022/04/15 07:01:56;;;;;;;44.13;15.43;;;;;;;;;;5095351;28;20067;-77
2022/04/15 07:04:23;;;;;;;33.03;14.52;;;;;;;;;;5094832;28;20051;-77
2022/04/15 07:06:49;;;;;;;50.53;14.70;;;;;;;;;;5095288;28;20114;-75
2022/04/15 07:09:15;;;;;;;29.67;12.07;;;;;;;;;;5113507;28;20103;-75
2022/04/15 07:11:41;;;;;;;41.92;13.55;;;;;;;;;;5116925;28;20012;-76
2022/04/15 07:14:07;;;;;;;31.95;11.30;;;;;;;;;;5115986;28;20039;-76
2022/04/15 07:16:34;;;;;;;29.67;11.55;;;;;;;;;;5113422;28;20026;-76
2022/04/15 07:19:04;;;;;;;23.13;12.18;;;;;;;;;;5095065;28;20032;-76
2022/04/15 07:21:34;;;;;;;29.73;11.57;;;;;;;;;;5094909;28;20046;-78
2022/04/15 07:24:00;;;;;;;26.77;11.00;;;;;;;;;;5095530;28;20110;-76
2022/04/15 07:26:26;;;;;;;27.98;10.43;;;;;;;;;;5097609;28;20435;-76
2022/04/15 07:28:53;;;;;;;24.23;10.95;;;;;;;;;;5113873;28;20462;-75
2022/04/15 07:31:19;;;;;;;27.17;11.80;;;;;;;;;;5094739;28;20439;-76
2022/04/15 07:33:48;;;;;;;29.77;10.95;;;;;;;;;;5095803;28;20028;-75
2022/04/15 07:38:59;;;;;;;28.35;11.05;;;;;;;;;;5111813;28;20544;-76
2022/04/15 07:41:25;;;;;;;16.83;10.25;;;;;;;;;;5112315;28;20035;-77
2022/04/15 07:43:51;;;;;;;25.40;10.70;;;;;;;;;;5112278;28;20024;-75
2022/04/15 07:46:17;;;;;;;18.75;9.73;;;;;;;;;;5111600;28;20098;-75
2022/04/15 07:48:43;;;;;;;19.58;9.45;;;;;;;;;;5111928;28;20024;-76
2022/04/15 07:51:10;;;;;;;25.10;10.90;;;;;;;;;;5112300;28;20015;-76
2022/04/15 07:53:36;;;;;;;15.52;10.00;;;;;;;;;;5111690;28;20023;-76
2022/04/15 07:56:02;;;;;;;13.02;8.88;;;;;;;;;;5112471;28;20085;-76
2022/04/15 07:58:29;;;;;;;20.98;10.02;;;;;;;;;;5094174;28;20028;-78
2022/04/15 08:00:55;;;;;;;16.60;9.25;;;;;;;;;;5093717;28;20520;-76
2022/04/15 08:03:25;;;;;;;15.27;8.35;;;;;;;;;;5111712;28;20635;-77
2022/04/15 08:05:51;;;;;;;13.98;9.48;;;;;;;;;;5112462;28;20058;-78
2022/04/15 08:08:17;;;;;;;15.65;8.75;;;;;;;;;;5093905;28;20016;-78
2022/04/15 08:10:43;;;;;;;19.80;10.02;;;;;;;;;;5112267;28;20023;-79
2022/04/15 08:13:09;;;;;;;13.43;7.93;;;;;;;;;;5093975;28;20102;-77
2022/04/15 08:15:35;;;;;;;13.73;7.72;;;;;;;;;;5093960;28;20031;-77
2022/04/15 08:18:02;;;;;;;23.45;9.52;;;;;;;;;;5112175;28;20024;-78
2022/04/15 08:20:28;;;;;;;16.60;8.02;;;;;;;;;;5111822;28;20023;-80
2022/04/15 08:22:54;;;;;;;25.40;10.80;;;;;;;;;;5111869;28;20028;-78
2022/04/15 08:25:20;;;;;;;18.92;8.85;;;;;;;;;;5112274;28;20030;-79
2022/04/15 08:27:46;;;;;;;18.67;7.85;;;;;;;;;;5112039;28;20023;-79
2022/04/15 08:30:12;;;;;;;16.17;8.43;;;;;;;;;;5111977;28;20027;-79
2022/04/15 08:32:38;;;;;;;14.60;7.05;;;;;;;;;;5093683;28;20095;-78
2022/04/15 08:35:06;;;;;;;14.48;6.90;;;;;;;;;;5115658;28;20027;-78
2022/04/15 08:37:33;;;;;;;12.95;7.28;;;;;;;;;;5116041;28;20044;-79
2022/04/15 08:39:59;;;;;;;14.50;7.55;;;;;;;;;;5116131;28;20019;-79
2022/04/15 08:42:25;;;;;;;16.75;7.47;;;;;;;;;;5097912;28;20177;-80
2022/04/15 08:44:51;;;;;;;20.20;8.35;;;;;;;;;;5116229;28;20039;-78
2022/04/15 08:47:18;;;;;;;25.73;8.75;;;;;;;;;;5115980;28;20020;-78
2022/04/15 08:49:44;;;;;;;11.65;8.38;;;;;;;;;;5115896;28;20022;-78
2022/04/15 08:52:11;;;;;;;15.07;7.95;;;;;;;;;;5116079;28;20471;-80
2022/04/15 08:54:37;;;;;;;15.45;8.02;;;;;;;;;;5097607;28;20035;-78
2022/04/15 08:57:05;;;;;;;26.58;9.07;;;;;;;;;;5115764;28;20019;-79
2022/04/15 08:59:31;;;;;;;12.90;7.25;;;;;;;;;;5116266;28;20012;-76
2022/04/15 09:01:57;;;;;;;16.20;7.10;;;;;;;;;;5097515;28;20089;-79
2022/04/15 09:04:24;;;;;;;18.77;7.90;;;;;;;;;;5115570;28;20043;-78
2022/04/15 09:06:56;;;;;;;12.85;7.00;;;;;;;;;;5097405;28;20023;-79
2022/04/15 09:09:29;;;;;;;21.77;7.40;;;;;;;;;;5115540;28;20051;-80
2022/04/15 09:11:56;;;;;;;29.48;9.68;;;;;;;;;;5115362;28;20049;-78
2022/04/15 09:14:23;;;;;;;13.85;7.78;;;;;;;;;;5115766;28;20381;-77
2022/04/15 09:16:49;;;;;;;18.15;8.82;;;;;;;;;;5115523;28;20032;-78
2022/04/15 09:19:16;;;;;;;18.45;7.82;;;;;;;;;;5097066;28;20544;-77
2022/04/15 09:21:44;;;;;;;29.13;8.20;;;;;;;;;;5097025;28;20019;-76
2022/04/15 09:24:11;;;;;;;22.48;7.78;;;;;;;;;;5115206;28;20099;-78
2022/04/15 09:26:38;;;;;;;22.88;7.95;;;;;;;;;;5115019;28;20018;-78
2022/04/15 09:29:04;;;;;;;18.50;8.70;;;;;;;;;;5096907;28;20072;-78
2022/04/15 09:31:30;;;;;;;13.27;7.30;;;;;;;;;;5096337;28;20026;-80
2022/04/15 09:34:00;;;;;;;19.40;7.35;;;;;;;;;;5114602;28;20027;-79
2022/04/15 09:36:27;;;;;;;23.05;7.68;;;;;;;;;;5114937;28;20019;-78
2022/04/15 09:38:56;;;;;;;21.13;6.90;;;;;;;;;;5114417;28;20015;-78
2022/04/15 09:41:25;;;;;;;14.68;8.30;;;;;;;;;;5114996;28;20019;-77
2022/04/15 09:43:52;;;;;;;17.20;7.80;;;;;;;;;;5093378;28;20049;-79
2022/04/15 09:46:19;;;;;;;17.48;7.28;;;;;;;;;;5114067;28;20012;-79
2022/04/15 09:49:03;;;;;;;17.67;6.95;;;;;;;;;;5113935;28;20485;-77
2022/04/15 09:51:45;;;;;;;20.83;7.45;;;;;;;;;;5114320;28;20501;-78
2022/04/15 09:54:22;;;;;;;16.02;7.85;;;;;;;;;;5112985;28;20110;-79
2022/04/15 09:56:48;;;;;;;17.77;7.72;;;;;;;;;;5114695;28;20019;-78
2022/04/15 09:59:15;;;;;;;19.90;7.47;;;;;;;;;;5114123;28;20097;-78
2022/04/15 10:01:45;;;;;;;28.58;20.17;;;;;;;;;;5114980;28;20023;-76
2022/04/15 10:04:15;;;;;;;39.08;21.65;;;;;;;;;;5114982;28;20096;-81
2022/04/15 10:06:43;;;;;;;19.63;11.07;;;;;;;;;;5115306;28;20040;-78
2022/04/15 10:09:13;;;;;;;21.65;10.98;;;;;;;;;;5096965;28;20015;-82
2022/04/15 10:11:40;;;;;;;22.92;17.05;;;;;;;;;;5095452;28;20019;-80
2022/04/15 10:14:06;;;;;;;27.83;18.80;;;;;;;;;;5114012;28;20031;-80
2022/04/15 10:16:32;;;;;;;29.90;15.35;;;;;;;;;;5114525;28;20020;-80
2022/04/15 10:19:01;;;;;;;34.83;20.88;;;;;;;;;;5114690;28;20019;-83
2022/04/15 10:21:28;;;;;;;21.70;12.00;;;;;;;;;;5117307;28;20026;-85
2022/04/15 10:23:54;;;;;;;30.45;18.30;;;;;;;;;;5122636;28;20019;-84
2022/04/15 10:26:21;;;;;;;20.98;11.88;;;;;;;;;;5100345;28;20023;-85
2022/04/15 10:28:47;;;;;;;21.02;9.43;;;;;;;;;;5101678;28;20020;-83
2022/04/15 10:31:17;;;;;;;24.25;16.85;;;;;;;;;;5098207;28;20024;-82
2022/04/15 10:33:44;;;;;;;19.85;9.23;;;;;;;;;;5098527;28;20106;-82
2022/04/15 10:36:12;;;;;;;22.05;8.15;;;;;;;;;;5115384;28;20360;-81
2022/04/15 10:38:58;;;;;;;19.50;10.15;;;;;;;;;;5102388;28;20028;-83
2022/04/15 10:41:24;;;;;;;15.57;8.65;;;;;;;;;;5097657;28;20034;-85
2022/04/15 10:44:00;;;;;;;14.48;8.32;;;;;;;;;;5119253;28;20066;-84
2022/04/15 10:46:30;;;;;;;18.92;8.13;;;;;;;;;;5119105;28;20023;-85
2022/04/15 10:49:00;;;;;;;14.95;7.47;;;;;;;;;;5122015;28;20052;-84
2022/04/15 10:51:29;;;;;;;18.20;7.90;;;;;;;;;;5131798;28;20015;-81
2022/04/15 10:53:56;;;;;;;12.35;6.10;;;;;;;;;;5114297;28;20035;-80
2022/04/15 10:56:24;;;;;;;9.23;4.15;;;;;;;;;;5111605;28;20076;-83
2022/04/15 11:01:51;;;;;;;9.48;5.68;;;;;;;;;;5114859;28;20107;-84
2022/04/15 11:04:23;;;;;;;11.23;4.78;;;;;;;;;;5097447;28;20055;-84
2022/04/15 11:06:49;;;;;;;9.25;3.45;;;;;;;;;;5099532;28;20038;-83
2022/04/15 11:09:15;;;;;;;10.40;3.38;;;;;;;;;;5098473;28;20069;-85
2022/04/15 11:11:43;;;;;;;7.72;4.82;;;;;;;;;;5102374;28;20019;-83
2022/04/15 11:14:13;;;;;;;9.43;4.90;;;;;;;;;;5099347;28;20028;-83
2022/04/15 11:16:50;;;;;;;10.60;4.25;;;;;;;;;;5098327;28;20064;-87
2022/04/15 11:19:24;;;;;;;9.20;5.25;;;;;;;;;;5109646;28;20506;-85
2022/04/15 11:21:50;;;;;;;;;;;;;;;;;;5110734;28;20027;-85
2022/04/15 11:24:21;;;;;;;5.70;4.22;;;;;;;;;;5097708;28;19903;-85
2022/04/15 11:26:47;;;;;;;13.35;4.18;;;;;;;;;;5099053;28;20437;-86
2022/04/15 11:29:14;;;;;;;13.35;5.75;;;;;;;;;;5097518;28;20031;-83
2022/04/15 11:31:41;;;;;;;8.05;4.07;;;;;;;;;;5097022;28;20068;-85
2022/04/15 11:34:15;;;;;;;12.75;5.95;;;;;;;;;;5096630;28;20038;-85
2022/04/15 11:36:46;;;;;;;9.98;4.47;;;;;;;;;;5096967;28;20049;-85
2022/04/15 11:39:13;;;;;;;9.43;5.43;;;;;;;;;;5097104;28;20466;-85
2022/04/15 11:41:46;;;;;;;11.75;4.32;;;;;;;;;;5097597;28;20049;-86
2022/04/15 11:44:12;;;;;;;5.68;3.58;;;;;;;;;;5096110;28;20023;-84
2022/04/15 11:46:43;;;;;;;8.40;3.83;;;;;;;;;;5093697;28;20027;-83
2022/04/15 11:49:16;;;;;;;7.50;4.30;;;;;;;;;;5118028;28;20035;-82
2022/04/15 11:51:44;;;;;;;7.63;4.00;;;;;;;;;;5128089;28;20026;-83
2022/04/15 11:54:10;;;;;;;6.35;3.15;;;;;;;;;;5108165;28;20055;-84
2022/04/15 11:56:36;;;;;;;12.07;3.45;;;820.00;768.00;;;;;;5098764;28;20016;-82
2022/04/15 11:59:02;;;;;;;10.35;4.53;;;870.40;768.00;;;;;;5095111;28;20126;-82
2022/04/15 12:01:31;;;;;;;6.88;3.35;;;;;;;;;;5095258;28;20093;-82
2022/04/15 12:03:58;;;;;;;5.55;4.05;;;;;;;;;;5094983;28;20151;-83
2022/04/15 12:06:25;;;;;;;10.98;3.83;;;;;;;;;;5095412;28;20019;-82
2022/04/15 12:08:51;;;;;;;7.75;3.88;;;;;;;;;;5092834;28;20494;-83
2022/04/15 12:11:22;;;;;;;6.18;3.22;;;;;;;;;;5093670;28;20019;-82
2022/04/15 12:13:53;;;;;;;9.77;3.67;;;;;;;;;;5093030;28;20019;-83
2022/04/15 12:16:19;;;;;;;4.35;2.58;;;;;;;;;;5093429;28;20054;-82
2022/04/15 12:18:46;;;;;;;7.05;3.45;;;;;;;;;;5093930;28;20016;-82
2022/04/15 12:21:12;;;;;;;8.13;3.67;;;896.90;691.20;;;;;;5093374;28;20244;-82
2022/04/15 12:23:38;;;;;;;19.65;3.83;;;;;;;;;;5094219;28;20434;-83
2022/04/15 12:26:09;;;;;;;7.18;3.35;;;;;;;;;;5094886;28;20053;-82
2022/04/15 12:31:33;;;;;;;10.13;3.92;;;;;;;;;;5112969;28;20046;-82
2022/04/15 12:34:00;;;;;;;10.23;4.53;;;;;;;;;;5095189;28;20024;-83
2022/04/15 12:36:38;;;;;;;5.10;3.55;;;;;;;;;;5095216;28;20019;-82
2022/04/15 12:39:06;;;;;;;13.13;6.63;;;;;;;;;;5095083;28;20015;-83
2022/04/15 12:41:42;;;;;;;6.18;2.90;;;;;;;;;;5095064;28;20023;-83
2022/04/15 12:44:14;;;;;;;7.95;3.30;;;;;;;;;;5094717;28;20058;-82
2022/04/15 12:46:41;;;;;;;10.57;3.97;;;;;;;;;;5095099;28;20439;-83
2022/04/15 12:49:21;;;;;;;6.43;3.72;;;;;;;;;;5094869;28;20024;-82
2022/04/15 12:51:48;;;;;;;4.57;2.42;;;;;;;;;;5096892;28;20016;-79
2022/04/15 12:54:14;;;;;;;8.68;3.95;;;742.50;844.80;;;;;;5091465;28;20077;-76
2022/04/15 12:56:52;;;;;;;5.53;3.58;;;;;;;;;;5093668;28;20023;-77
2022/04/15 12:59:18;;;;;;;7.43;4.43;;;;;;;;;;5093989;28;20019;-79
2022/04/15 13:01:44;;;;;;;12.95;4.22;;;;;;;;;;5093388;28;20127;-76
2022/04/15 13:04:15;;;;;;;25.17;8.95;;;;;;;;;;5092834;28;20047;-77
2022/04/15 13:06:41;;;;;;;7.85;2.75;;;;;;;;;;5091341;28;20536;-80
2022/04/15 13:09:07;;;;;;;7.10;3.72;;;;;;;;;;5094179;28;20080;-78
2022/04/15 13:11:33;;;;;;;8.52;3.83;;;;;;;;;;5094207;28;20028;-79
2022/04/15 13:13:59;;;;;;;13.40;9.80;;;;;;;;;;5094141;28;20024;-77
2022/04/15 13:16:25;;;;;;;8.95;5.20;;;;;;;;;;5093684;28;20066;-79
2022/04/15 13:18:52;;;;;;;14.93;10.63;;;;;;;;;;5093453;28;20654;-76
2022/04/15 13:21:18;;;;;;;12.00;6.20;;;;;;;;;;5097125;28;20072;-77
2022/04/15 13:23:44;;;;;;;28.35;7.70;;;;;;;;;;5097918;28;20020;-77
2022/04/15 13:26:10;;;;;;;4.55;3.42;;;;;;;;;;5115730;28;20031;-78
2022/04/15 13:28:36;;;;;;;6.57;4.53;;;;;;;;;;5097289;28;20120;-76
2022/04/15 13:31:02;;;;;;;11.13;7.32;;;;;;;;;;5097279;28;20027;-76
2022/04/15 13:33:28;;;;;;;14.80;6.75;;;;;;;;;;5097246;28;20482;-76
2022/04/15 13:35:54;;;;;;;17.90;10.30;;;;;;;;;;5097061;28;20045;-77
2022/04/15 13:38:20;;;;;;;14.75;8.85;;;;;;;;;;5097097;28;20023;-79
2022/04/15 13:40:46;;;;;;;9.55;4.38;;;;;;;;;;5097128;28;20023;-77
2022/04/15 13:43:12;;;;;;;17.13;8.15;;;;;;;;;;5096717;28;20023;-77
2022/04/15 13:45:38;;;;;;;12.70;9.63;;;;;;;;;;5096786;28;20036;-75
2022/04/15 13:48:04;;;;;;;16.35;14.02;;;;;;;;;;5114770;28;20020;-76
2022/04/15 13:50:30;;;;;;;14.90;10.25;;;;;;;;;;5096601;28;20111;-77
2022/04/15 13:58:26;;;;;;;7.65;5.07;;;;;;;;;;5114778;28;20075;-81
2022/04/15 14:00:52;;;;;;;13.05;7.05;;;;;;;;;;5096414;28;20061;-77
2022/04/15 14:03:18;;;;;;;22.55;15.55;;;;;;;;;;5107482;28;20043;-77
2022/04/15 14:05:46;;;;;;;10.27;6.35;;;;;;;;;;5083340;28;20063;-79
2022/04/15 14:08:13;;;;;;;16.98;12.48;;;;;;;;;;5115279;28;20022;-75
2022/04/15 14:10:39;;;;;;;65.65;14.85;;;;;;;;;;5096453;28;20031;-77
2022/04/15 14:13:06;;;;;;;10.43;5.68;;;;;;;;;;5096162;28;20031;-77
2022/04/15 14:15:32;;;;;;;11.60;8.68;;;;;;;;;;5095228;28;20023;-77
2022/04/15 14:18:01;;;;;;;6.65;4.25;;;;;;;;;;5096782;28;20367;-77
2022/04/15 14:20:29;;;;;;;8.15;5.03;;;;;;;;;;5097147;28;20027;-77
2022/04/15 14:22:55;;;;;;;12.20;7.50;;;;;;;;;;5096462;28;20080;-78
2022/04/15 14:25:21;;;;;;;11.10;6.03;;;;;;;;;;5095875;28;20109;-77
2022/04/15 14:27:47;;;;;;;11.98;3.95;;;;;;;;;;5095637;28;20418;-77
2022/04/15 14:30:14;;;;;;;7.43;5.00;;;;;;;;;;5093287;28;20022;-76
2022/04/15 14:32:40;;;;;;;8.57;5.35;;;;;;;;;;5095066;28;20030;-78
2022/04/15 14:35:06;;;;;;;6.05;3.83;;;;;;;;;;5114110;28;20019;-77